»·PEaware :: SWA171 KDEN-KSAN

SWA171 :: KDEN-KSAN

FLIGHT INFORMATION

Flight Status: Arrived
Operator:
Southwest Airlines
More flights by this operator :: More flights under this callsign
Pilot: Tim M. (868)
Aircraft: BOEING 737-700
(B737)
More flights by this aircraft type
Origin: KDEN Denver Intl
United States
Destination: KSAN San Diego Intl-Lindbergh
United States
More flights between these airports :: More routes between these airports
Route: +BAYLR6 TEHRU DVC PLNDL Q86 TTRUE LUCKI1
File this flight plan on PilotEdge
Remarks:
Altitude:
(Current/Filed)
40,000ft
Speed:
(Current/Filed)
461kts
Departed: 06-Sep-20 11:31 AM
Arrived: 06-Sep-20 01:18 PM
Distance/Time
Traveled:
740nm/1:47
Distance/Time
To Go:
Arrived

Flight Plot

Page will automatically refresh every two minutes.

Flight plan parsing failed; only flown route is shown


Map Options




Map Legend


Flown Route
Filed Route
Departure Airport
Arrival Airport
Navaid (VOR, NDB)
Fix

Horizontal Profiles

Position Reports

Time Latitude Longitude Heading Altitude Ground
Speed
06-Sep-20 10:33 39.863708 -104.671577 212 5439ft 0kts
06-Sep-20 10:34 39.863708 -104.671577 212 5439ft 0kts
06-Sep-20 10:35 39.863708 -104.671577 212 5439ft 0kts
06-Sep-20 10:36 39.863708 -104.671577 212 5439ft 0kts
06-Sep-20 10:37 39.863708 -104.671577 212 5439ft 0kts
06-Sep-20 10:38 39.863708 -104.671577 212 5439ft 0kts
06-Sep-20 10:39 39.863708 -104.671577 212 5439ft 0kts
06-Sep-20 10:40 39.863708 -104.671577 212 5439ft 0kts
06-Sep-20 10:41 39.863708 -104.671577 212 5439ft 0kts
06-Sep-20 10:42 39.863708 -104.671577 212 5439ft 0kts
06-Sep-20 10:43 39.863708 -104.671577 212 5439ft 0kts
06-Sep-20 10:44 39.863708 -104.671577 212 5439ft 0kts
06-Sep-20 10:45 39.863708 -104.671577 212 5439ft 0kts
06-Sep-20 10:46 39.863708 -104.671577 212 5439ft 0kts
06-Sep-20 10:47 39.863708 -104.671577 212 5439ft 0kts
06-Sep-20 10:48 39.863708 -104.671577 212 5439ft 0kts
06-Sep-20 10:49 39.863708 -104.671577 212 5439ft 0kts
06-Sep-20 10:50 39.863708 -104.671577 212 5439ft 0kts
06-Sep-20 10:51 39.863708 -104.671577 212 5439ft 0kts
06-Sep-20 10:52 39.863708 -104.671577 212 5439ft 0kts
06-Sep-20 10:53 39.863708 -104.671577 212 5439ft 0kts
06-Sep-20 10:54 39.863708 -104.671577 212 5439ft 0kts
06-Sep-20 10:55 39.863708 -104.671577 212 5439ft 0kts
06-Sep-20 10:56 39.863708 -104.671577 212 5439ft 0kts
06-Sep-20 10:57 39.863708 -104.671577 212 5439ft 0kts
06-Sep-20 10:58 39.863708 -104.671577 212 5439ft 0kts
06-Sep-20 10:59 39.863708 -104.671577 212 5439ft 0kts
06-Sep-20 11:00 39.863708 -104.671577 212 5439ft 0kts
06-Sep-20 11:01 39.863708 -104.671577 212 5439ft 0kts
06-Sep-20 11:02 39.863708 -104.671577 212 5439ft 0kts
06-Sep-20 11:03 39.863708 -104.671577 212 5439ft 0kts
06-Sep-20 11:04 39.863708 -104.671577 212 5439ft 0kts
06-Sep-20 11:05 39.863708 -104.671577 212 5439ft 0kts
06-Sep-20 11:06 39.863708 -104.671577 212 5439ft 0kts
06-Sep-20 11:07 39.863708 -104.671577 212 5439ft 0kts
06-Sep-20 11:08 39.863708 -104.671577 212 5439ft 0kts
06-Sep-20 11:09 39.863708 -104.671577 212 5439ft 0kts
06-Sep-20 11:10 39.863708 -104.671577 212 5439ft 0kts
06-Sep-20 11:11 39.863708 -104.671577 212 5439ft 0kts
06-Sep-20 11:12 39.863708 -104.671577 212 5439ft 0kts
06-Sep-20 11:13 39.863708 -104.671577 212 5439ft 0kts
06-Sep-20 11:14 39.863708 -104.671577 212 5439ft 0kts
06-Sep-20 11:15 39.863862 -104.671448 212 5439ft 2kts
06-Sep-20 11:16 39.864194 -104.671721 90 5439ft 2kts
06-Sep-20 11:17 39.864195 -104.671964 90 5439ft 0kts
06-Sep-20 11:18 39.864195 -104.671964 90 5439ft 0kts
06-Sep-20 11:19 39.864356 -104.670874 28 5439ft 6kts
06-Sep-20 11:20 39.864747 -104.668159 92 5439ft 11kts
06-Sep-20 11:21 39.864574 -104.667226 273 5439ft 4kts
06-Sep-20 11:22 39.864787 -104.670655 271 5439ft 12kts
06-Sep-20 11:23 39.864811 -104.674983 270 5439ft 11kts
06-Sep-20 11:24 39.864852 -104.679540 270 5439ft 12kts
06-Sep-20 11:25 39.864222 -104.683739 234 5439ft 11kts
06-Sep-20 11:26 39.860751 -104.683954 180 5439ft 15kts
06-Sep-20 11:27 39.854921 -104.684004 179 5439ft 21kts
06-Sep-20 11:28 39.848525 -104.684091 181 5439ft 22kts
06-Sep-20 11:29 39.842884 -104.684156 180 5439ft 18kts
06-Sep-20 11:30 39.840744 -104.695560 270 5439ft 115kts
06-Sep-20 11:31 39.839566 -104.759802 261 6640ft 218kts
06-Sep-20 11:32 39.805001 -104.842539 240 8447ft 291kts
06-Sep-20 11:33 39.767482 -104.938072 256 10715ft 306kts
06-Sep-20 11:34 39.740134 -105.055492 250 12657ft 374kts
06-Sep-20 11:35 39.697504 -105.182487 249 15733ft 389kts
06-Sep-20 11:36 39.654300 -105.313690 249 18550ft 401kts
06-Sep-20 11:37 39.609266 -105.450128 249 20958ft 419kts
06-Sep-20 11:38 39.562331 -105.591368 249 22981ft 434kts
06-Sep-20 11:39 39.519283 -105.740153 252 24735ft 446kts
06-Sep-20 11:40 39.477509 -105.892972 252 26374ft 455kts
06-Sep-20 11:41 39.433744 -106.048722 252 27805ft 464kts
06-Sep-20 11:42 39.396936 -106.179161 252 28862ft 470kts
06-Sep-20 11:44 39.351684 -106.338688 252 30208ft 472kts
06-Sep-20 11:45 39.307108 -106.496740 252 32023ft 463kts
06-Sep-20 11:46 39.262678 -106.651179 252 33789ft 456kts
06-Sep-20 11:47 39.197980 -106.792088 235 35259ft 461kts
06-Sep-20 11:48 39.116886 -106.920156 234 36526ft 460kts
06-Sep-20 11:49 39.035814 -107.047775 234 37687ft 459kts
06-Sep-20 11:50 38.955653 -107.175108 235 38709ft 457kts
06-Sep-20 11:51 38.875274 -107.301575 234 39681ft 455kts
06-Sep-20 11:52 38.795166 -107.426920 234 40510ft 454kts
06-Sep-20 11:53 38.714730 -107.552252 234 40477ft 454kts
06-Sep-20 11:54 38.634314 -107.677056 234 40438ft 455kts
06-Sep-20 11:55 38.553309 -107.802288 234 40414ft 456kts
06-Sep-20 11:56 38.472316 -107.927015 233 40410ft 457kts
06-Sep-20 11:57 38.391007 -108.051748 233 40420ft 457kts
06-Sep-20 11:58 38.309605 -108.176134 233 40456ft 457kts
06-Sep-20 11:59 38.227936 -108.300453 233 40493ft 457kts
06-Sep-20 12:00 38.146431 -108.424050 233 40515ft 457kts
06-Sep-20 12:01 38.064447 -108.547903 233 40523ft 456kts
06-Sep-20 12:01 37.996405 -108.650739 233 40541ft 457kts
06-Sep-20 12:03 37.900410 -108.794632 232 40479ft 459kts
06-Sep-20 12:04 37.817448 -108.918263 232 40447ft 460kts
06-Sep-20 12:04 37.749984 -109.022401 233 40430ft 459kts
06-Sep-20 12:05 37.669250 -109.147699 233 40429ft 460kts
06-Sep-20 12:06 37.588497 -109.272405 233 40434ft 459kts
06-Sep-20 12:07 37.508118 -109.397582 233 40438ft 459kts
06-Sep-20 12:08 37.427183 -109.522314 232 40434ft 459kts
06-Sep-20 12:09 37.346110 -109.646634 232 40423ft 460kts
06-Sep-20 12:10 37.264737 -109.770914 232 40412ft 460kts
06-Sep-20 12:11 37.183309 -109.894813 232 40396ft 461kts
06-Sep-20 12:12 37.101412 -110.018967 232 40386ft 461kts
06-Sep-20 12:13 37.019642 -110.142447 231 40370ft 461kts
06-Sep-20 12:14 36.937509 -110.266020 231 40353ft 462kts
06-Sep-20 12:15 36.855284 -110.389277 231 40342ft 462kts
06-Sep-20 12:16 36.772616 -110.512742 231 40325ft 462kts
06-Sep-20 12:17 36.690138 -110.635470 231 40310ft 462kts
06-Sep-20 12:18 36.607335 -110.758226 231 40312ft 463kts
06-Sep-20 12:19 36.524185 -110.881050 230 40310ft 463kts
06-Sep-20 12:20 36.441186 -111.003204 230 40312ft 463kts
06-Sep-20 12:21 36.358042 -111.125128 230 40322ft 462kts
06-Sep-20 12:22 36.274864 -111.246663 230 40336ft 462kts
06-Sep-20 12:23 36.191461 -111.368088 230 40349ft 462kts
06-Sep-20 12:24 36.107980 -111.489194 229 40371ft 462kts
06-Sep-20 12:25 36.024547 -111.610196 229 40396ft 462kts
06-Sep-20 12:26 35.940586 -111.731074 229 40431ft 462kts
06-Sep-20 12:27 35.856701 -111.851334 230 40459ft 462kts
06-Sep-20 12:28 35.789465 -111.985978 241 40467ft 462kts
06-Sep-20 12:29 35.727077 -112.124251 240 40468ft 462kts
06-Sep-20 12:30 35.662561 -112.261223 239 40464ft 462kts
06-Sep-20 12:31 35.597845 -112.398239 240 40462ft 463kts
06-Sep-20 12:32 35.533572 -112.535442 239 40456ft 463kts
06-Sep-20 12:33 35.469120 -112.672442 239 40442ft 464kts
06-Sep-20 12:34 35.404795 -112.809672 239 40424ft 464kts
06-Sep-20 12:35 35.340388 -112.946939 239 40401ft 465kts
06-Sep-20 12:36 35.275408 -113.083489 239 40355ft 464kts
06-Sep-20 12:37 35.210103 -113.220539 239 40287ft 465kts
06-Sep-20 12:38 35.144834 -113.357055 238 40243ft 465kts
06-Sep-20 12:39 35.079484 -113.493272 238 40213ft 465kts
06-Sep-20 12:40 35.014621 -113.629788 238 40192ft 465kts
06-Sep-20 12:41 34.948857 -113.766311 238 40175ft 466kts
06-Sep-20 12:42 34.883002 -113.902059 238 40149ft 466kts
06-Sep-20 12:43 34.814676 -114.036484 236 40077ft 465kts
06-Sep-20 12:44 34.746034 -114.169769 236 40014ft 466kts
06-Sep-20 12:45 34.676543 -114.303339 236 39969ft 466kts
06-Sep-20 12:46 34.601257 -114.430618 227 39945ft 464kts
06-Sep-20 12:47 34.515833 -114.548544 227 39946ft 465kts
06-Sep-20 12:48 34.430197 -114.666129 227 39936ft 465kts
06-Sep-20 12:49 34.344760 -114.783139 226 39964ft 465kts
06-Sep-20 12:50 34.258838 -114.900228 226 39972ft 464kts
06-Sep-20 12:51 34.173195 -115.017341 227 39969ft 465kts
06-Sep-20 12:52 34.087080 -115.134269 226 39970ft 464kts
06-Sep-20 12:53 34.001098 -115.250395 226 39974ft 465kts
06-Sep-20 12:54 33.914843 -115.367246 227 39980ft 467kts
06-Sep-20 12:55 33.828560 -115.484122 226 39597ft 469kts
06-Sep-20 12:56 33.741784 -115.600764 226 36631ft 469kts
06-Sep-20 12:57 33.653951 -115.717643 226 33258ft 473kts
06-Sep-20 12:58 33.573009 -115.844058 234 29362ft 481kts
06-Sep-20 12:59 33.496453 -115.976857 234 25299ft 483kts
06-Sep-20 13:00 33.419201 -116.109938 234 22901ft 482kts
06-Sep-20 13:01 33.340445 -116.235979 222 20553ft 463kts
06-Sep-20 13:02 33.234235 -116.311404 203 18295ft 442kts
06-Sep-20 13:03 33.125647 -116.374180 204 16213ft 419kts
06-Sep-20 13:04 33.026546 -116.431963 204 14268ft 370kts
06-Sep-20 13:05 32.947554 -116.502387 219 12543ft 347kts
06-Sep-20 13:06 32.886049 -116.564772 218 11114ft 334kts
06-Sep-20 13:07 32.818575 -116.632720 218 9843ft 298kts
06-Sep-20 13:08 32.761827 -116.701430 238 8264ft 289kts
06-Sep-20 13:09 32.724160 -116.783796 239 6640ft 274kts
06-Sep-20 13:10 32.693127 -116.862887 250 5359ft 259kts
06-Sep-20 13:11 32.673610 -116.940876 274 4176ft 237kts
06-Sep-20 13:12 32.690566 -117.012643 286 3185ft 210kts
06-Sep-20 13:13 32.704554 -117.073620 283 2197ft 167kts
06-Sep-20 13:14 32.716939 -117.119882 286 1222ft 139kts
06-Sep-20 13:15 32.727691 -117.165302 284 323ft 140kts
06-Sep-20 13:16 32.736158 -117.200589 286 23ft 42kts
06-Sep-20 13:17 32.735783 -117.203357 103 23ft 8kts
06-Sep-20 13:18 32.735006 -117.199956 105 23ft 16kts
06-Sep-20 13:19 32.733929 -117.195436 106 23ft 12kts
06-Sep-20 13:20 32.732825 -117.195081 291 23ft 1kts
06-Sep-20 13:21 32.732867 -117.195471 274 23ft 0kts
06-Sep-20 13:22 32.732867 -117.195472 274 23ft 0kts

Navigation Log

Ident Type
Flight plan parsing failed, navigation log unavailable